Time;durP1;ratioP1;P1;durP2;ratioP2;P2;SDS_P1;SDS_P2;PMS_P1;PMS_P2;Temp;Humidity;BMP_temperature;BMP_pressure;BME280_temperature;BME280_humidity;BME280_pressure;Samples;Min_cycle;Max_cycle;Signal;HPM_P1;HPM_P2
2022/11/12 00:00:34;;;;;;;14.32;7.07;;;7.40;99.90;;;;;;4994601;28;20072;-60
2022/11/12 00:03:00;;;;;;;15.48;7.03;;;7.40;99.90;;;;;;4991061;28;20495;-61
2022/11/12 00:05:26;;;;;;;10.93;6.63;;;7.40;99.90;;;;;;4993214;28;20038;-61
2022/11/12 00:07:51;;;;;;;17.50;7.30;;;7.40;99.90;;;;;;4997244;28;20029;-61
2022/11/12 00:10:17;;;;;;;16.33;7.45;;;7.40;99.90;;;;;;4998389;28;20033;-62
2022/11/12 00:12:43;;;;;;;18.52;7.65;;;7.30;99.90;;;;;;4993208;28;20125;-61
2022/11/12 00:15:09;;;;;;;13.32;7.00;;;7.30;99.90;;;;;;4996106;28;20049;-61
2022/11/12 00:17:34;;;;;;;15.73;7.57;;;7.30;99.90;;;;;;4995892;28;20119;-61
2022/11/12 00:20:00;;;;;;;12.57;7.15;;;7.20;99.90;;;;;;4994807;28;20101;-60
2022/11/12 00:22:26;;;;;;;13.73;7.82;;;7.20;99.90;;;;;;4992514;28;20041;-58
2022/11/12 00:24:51;;;;;;;17.70;7.20;;;7.20;99.90;;;;;;4992586;28;20365;-58
2022/11/12 00:27:17;;;;;;;14.32;7.18;;;7.20;99.90;;;;;;4991263;28;20030;-59
2022/11/12 00:29:43;;;;;;;15.90;7.28;;;7.10;99.90;;;;;;4992847;28;20084;-61
2022/11/12 00:32:09;;;;;;;17.13;8.20;;;7.10;99.90;;;;;;4990215;28;20404;-60
2022/11/12 00:34:35;;;;;;;12.52;7.45;;;7.10;99.90;;;;;;4998355;28;20037;-61
2022/11/12 00:37:00;;;;;;;13.95;8.13;;;7.10;99.90;;;;;;4999135;28;20018;-60
2022/11/12 00:39:27;;;;;;;16.70;7.55;;;7.10;99.90;;;;;;4994997;28;20030;-60
2022/11/12 00:41:52;;;;;;;14.77;7.20;;;7.00;99.90;;;;;;4996112;28;20029;-62
2022/11/12 00:44:18;;;;;;;16.63;7.57;;;7.00;99.90;;;;;;4992371;28;20027;-61
2022/11/12 00:46:44;;;;;;;17.65;7.75;;;7.10;99.90;;;;;;4996107;28;20487;-57
2022/11/12 00:49:10;;;;;;;19.83;7.88;;;7.00;99.90;;;;;;4995670;28;20048;-62
2022/11/12 00:51:35;;;;;;;19.55;7.47;;;7.00;99.90;;;;;;4994639;28;20022;-61
2022/11/12 00:54:01;;;;;;;11.77;6.43;;;6.90;99.90;;;;;;4994823;28;20122;-61
2022/11/12 00:56:26;;;;;;;14.23;7.93;;;6.90;99.90;;;;;;4996036;28;20034;-61
2022/11/12 00:58:52;;;;;;;21.13;7.13;;;6.90;99.90;;;;;;4996308;28;20029;-59
2022/11/12 01:01:18;;;;;;;11.85;6.93;;;6.80;99.90;;;;;;4997483;28;20038;-60
2022/11/12 01:03:43;;;;;;;18.80;7.70;;;6.70;99.90;;;;;;4992870;28;20510;-58
2022/11/12 01:06:15;;;;;;;16.73;7.82;;;6.80;99.90;;;;;;4980479;28;20037;-60
2022/11/12 01:08:42;;;;;;;14.90;7.88;;;6.70;99.90;;;;;;4996947;28;20030;-61
2022/11/12 01:11:13;;;;;;;19.88;7.95;;;6.80;99.90;;;;;;4994501;28;20041;-61
2022/11/12 01:13:41;;;;;;;14.18;6.78;;;6.70;99.90;;;;;;4993754;28;20027;-61
2022/11/12 01:16:16;;;;;;;14.75;6.60;;;6.70;99.90;;;;;;4994781;28;20105;-61
2022/11/12 01:18:42;;;;;;;16.92;7.82;;;6.80;99.90;;;;;;4993084;28;20089;-57
2022/11/12 01:21:08;;;;;;;14.18;8.45;;;6.80;99.90;;;;;;4991911;28;20038;-57
2022/11/12 01:23:37;;;;;;;16.80;8.65;;;6.80;99.90;;;;;;4993928;28;20117;-59
2022/11/12 01:26:04;;;;;;;16.42;7.80;;;6.80;99.90;;;;;;4992209;28;20148;-61
2022/11/12 01:28:30;;;;;;;15.57;8.07;;;6.80;99.90;;;;;;4993374;28;20504;-60
2022/11/12 01:30:55;;;;;;;17.50;8.52;;;6.80;99.90;;;;;;4998444;28;20033;-55
2022/11/12 01:33:21;;;;;;;18.13;7.93;;;6.80;99.90;;;;;;4993189;28;20396;-60
2022/11/12 01:35:46;;;;;;;17.90;8.20;;;6.80;99.90;;;;;;4993887;28;20036;-61
2022/11/12 01:38:12;;;;;;;18.58;8.18;;;6.80;99.90;;;;;;4996621;28;20105;-58
2022/11/12 01:40:37;;;;;;;18.80;8.30;;;6.80;99.90;;;;;;4994260;28;20073;-60
2022/11/12 01:43:08;;;;;;;20.48;8.02;;;6.80;99.90;;;;;;4997078;28;20129;-61
2022/11/12 01:45:34;;;;;;;17.55;8.02;;;6.80;99.90;;;;;;4991528;28;20503;-61
2022/11/12 01:47:59;;;;;;;19.00;8.70;;;6.80;99.90;;;;;;4998062;28;20053;-61
2022/11/12 01:50:33;;;;;;;20.85;9.00;;;6.70;99.90;;;;;;4990312;28;20034;-61
2022/11/12 01:53:04;;;;;;;21.70;9.32;;;6.70;99.90;;;;;;4992690;28;20080;-60
2022/11/12 01:55:34;;;;;;;14.13;8.20;;;6.70;99.90;;;;;;4994189;28;20030;-61
2022/11/12 01:58:02;;;;;;;20.40;9.30;;;6.80;99.90;;;;;;4991971;28;20031;-60
2022/11/12 02:00:28;;;;;;;16.90;8.13;;;6.80;99.90;;;;;;4988226;28;20385;-59
2022/11/12 02:02:58;;;;;;;14.98;8.63;;;6.80;99.90;;;;;;4999467;28;20076;-61
2022/11/12 02:05:25;;;;;;;15.52;7.57;;;6.80;99.90;;;;;;4988195;28;20026;-60
2022/11/12 02:07:51;;;;;;;16.10;9.35;;;6.80;99.90;;;;;;4996441;28;20029;-61
2022/11/12 02:10:21;;;;;;;17.40;8.65;;;6.70;99.90;;;;;;4985532;28;20050;-61
2022/11/12 02:15:32;;;;;;;20.42;8.55;;;6.70;99.90;;;;;;4991982;28;20678;-61
2022/11/12 02:17:58;;;;;;;15.63;8.07;;;6.70;99.90;;;;;;4996818;28;20038;-55
2022/11/12 02:20:24;;;;;;;18.90;8.65;;;6.70;99.90;;;;;;4997512;28;20165;-60
2022/11/12 02:22:49;;;;;;;13.75;8.25;;;6.70;99.90;;;;;;4993376;28;20053;-62
2022/11/12 02:25:22;;;;;;;16.38;8.35;;;6.60;99.90;;;;;;4991960;28;20495;-61
2022/11/12 02:27:50;;;;;;;16.75;8.30;;;6.60;99.90;;;;;;4991586;28;20022;-61
2022/11/12 02:30:30;;;;;;;26.88;8.73;;;6.60;99.90;;;;;;4990928;28;20085;-62
2022/11/12 02:32:56;;;;;;;20.13;9.85;;;6.70;99.90;;;;;;4995131;28;20484;-62
2022/11/12 02:35:21;;;;;;;19.77;8.68;;;6.70;99.90;;;;;;4992869;28;20034;-61
2022/11/12 02:37:47;;;;;;;21.58;9.35;;;6.70;99.90;;;;;;4992983;28;20034;-62
2022/11/12 02:40:12;;;;;;;14.75;8.43;;;6.70;99.90;;;;;;4990647;28;20440;-60
2022/11/12 02:42:38;;;;;;;16.23;9.48;;;6.60;99.90;;;;;;4996704;28;20085;-59
2022/11/12 02:45:04;;;;;;;17.00;8.65;;;6.70;99.90;;;;;;4991364;28;20053;-58
2022/11/12 02:47:29;;;;;;;17.55;8.75;;;6.70;99.90;;;;;;4997760;28;20042;-58
2022/11/12 02:49:55;;;;;;;17.60;8.93;;;6.70;99.90;;;;;;4994120;28;20031;-56
2022/11/12 02:52:21;;;;;;;16.25;8.90;;;6.60;99.90;;;;;;4992662;28;20030;-56
2022/11/12 02:54:46;;;;;;;16.40;8.48;;;6.60;99.90;;;;;;4980014;28;20026;-56
2022/11/12 02:57:12;;;;;;;13.95;8.55;;;6.70;99.90;;;;;;4994311;28;20027;-60
2022/11/12 02:59:37;;;;;;;23.20;8.07;;;6.70;99.90;;;;;;4991925;28;20022;-59
2022/11/12 03:02:03;;;;;;;16.08;8.13;;;6.60;99.90;;;;;;4992445;28;20038;-58
2022/11/12 03:04:28;;;;;;;20.60;7.97;;;6.60;99.90;;;;;;5001242;23;20050;-62
2022/11/12 03:06:54;;;;;;;15.60;8.20;;;6.60;99.90;;;;;;4973450;28;20106;-62
2022/11/12 03:09:19;;;;;;;16.33;8.57;;;6.60;99.90;;;;;;4973298;28;20508;-62
2022/11/12 03:11:45;;;;;;;15.20;8.07;;;6.60;99.90;;;;;;4978595;28;20043;-61
2022/11/12 03:14:10;;;;;;;14.98;8.60;;;6.60;99.90;;;;;;4969978;28;20027;-61
2022/11/12 03:16:36;;;;;;;16.40;8.93;;;6.60;99.90;;;;;;4957966;28;20609;-61
2022/11/12 03:19:01;;;;;;;18.60;8.20;;;6.50;99.90;;;;;;4954749;28;20555;-61
2022/11/12 03:21:27;;;;;;;15.13;7.72;;;6.50;99.90;;;;;;4975869;28;20023;-61
2022/11/12 03:23:52;;;;;;;14.73;7.65;;;6.50;99.90;;;;;;4950803;28;20038;-62
2022/11/12 03:26:18;;;;;;;15.13;7.45;;;6.50;99.90;;;;;;4959304;28;20041;-61
2022/11/12 03:28:43;;;;;;;16.63;7.78;;;6.50;99.90;;;;;;4955839;28;20158;-61
2022/11/12 03:31:10;;;;;;;15.50;7.82;;;6.50;99.90;;;;;;4957161;28;20043;-61
2022/11/12 03:33:36;;;;;;;18.60;8.60;;;6.50;99.90;;;;;;4946509;28;20019;-62
2022/11/12 03:36:03;;;;;;;17.92;8.70;;;6.40;99.90;;;;;;4959896;28;20038;-61
2022/11/12 03:38:28;;;;;;;16.15;7.68;;;6.50;99.90;;;;;;4954207;28;20023;-61
2022/11/12 03:40:54;;;;;;;25.13;9.30;;;6.40;99.90;;;;;;4954341;28;20050;-61
2022/11/12 03:43:19;;;;;;;15.18;8.35;;;6.50;99.90;;;;;;4956205;28;20045;-60
2022/11/12 03:45:45;;;;;;;18.27;7.88;;;6.40;99.90;;;;;;4958823;28;20030;-60
2022/11/12 03:48:11;;;;;;;16.92;8.52;;;6.40;99.90;;;;;;4954542;28;20118;-61
2022/11/12 03:50:36;;;;;;;17.50;8.30;;;6.30;99.90;;;;;;4958089;28;20023;-61
2022/11/12 03:53:02;;;;;;;19.40;8.45;;;6.30;99.90;;;;;;4954938;28;20119;-59
2022/11/12 03:55:29;;;;;;;18.27;8.68;;;6.30;99.90;;;;;;4952929;28;20404;-62
2022/11/12 03:57:55;;;;;;;20.30;8.52;;;6.30;99.90;;;;;;4958338;28;20359;-60
2022/11/12 04:00:23;;;;;;;15.35;8.30;;;6.30;99.90;;;;;;4957970;28;20096;-60
2022/11/12 04:02:49;;;;;;;20.73;8.45;;;6.30;99.90;;;;;;4956543;28;21011;-61
2022/11/12 04:10:51;;;;;;;21.70;8.30;;;6.30;99.90;;;;;;4950257;28;20104;-62
2022/11/12 04:13:29;;;;;;;16.73;8.57;;;6.30;99.90;;;;;;4952340;28;20044;-61
2022/11/12 04:21:50;;;;;;;13.10;7.38;;;6.30;99.90;;;;;;4952192;28;20118;-62
2022/11/12 04:27:23;;;;;;;17.40;8.02;;;6.30;99.90;;;;;;4960002;28;20114;-61
2022/11/12 04:32:36;;;;;;;18.00;7.82;;;6.30;99.90;;;;;;4958966;28;20109;-62
2022/11/12 04:35:03;;;;;;;17.10;8.25;;;6.30;99.90;;;;;;4954652;28;20042;-61
2022/11/12 04:37:43;;;;;;;17.23;8.65;;;6.20;99.90;;;;;;4957234;28;20027;-61
2022/11/12 04:46:03;;;;;;;15.98;7.88;;;6.20;99.90;;;;;;4952443;28;20405;-62
2022/11/12 04:48:28;;;;;;;13.88;8.07;;;6.20;99.90;;;;;;4969785;28;20440;-61
2022/11/12 04:50:59;;;;;;;15.57;8.02;;;6.20;99.90;;;;;;4955776;28;20039;-60
2022/11/12 04:53:25;;;;;;;16.30;8.02;;;6.10;99.90;;;;;;4953677;28;20031;-61
2022/11/12 04:55:53;;;;;;;23.02;8.57;;;6.10;99.90;;;;;;4959857;28;20390;-61
2022/11/12 04:58:18;;;;;;;17.50;8.15;;;6.20;99.90;;;;;;4950760;28;20393;-61
2022/11/12 05:00:44;;;;;;;20.88;9.38;;;6.20;99.90;;;;;;4959751;28;20053;-61
2022/11/12 05:03:10;;;;;;;17.52;8.05;;;6.20;99.90;;;;;;4951134;28;20513;-60
2022/11/12 05:05:35;;;;;;;15.00;7.88;;;6.20;99.90;;;;;;4961827;28;20035;-61
2022/11/12 05:08:02;;;;;;;19.20;8.80;;;6.20;99.90;;;;;;4953264;28;20436;-61
2022/11/12 05:10:28;;;;;;;17.05;8.70;;;6.20;99.90;;;;;;4952703;28;20027;-62
2022/11/12 05:12:53;;;;;;;20.98;9.93;;;6.10;99.90;;;;;;4949708;28;20089;-61
2022/11/12 05:15:19;;;;;;;21.35;10.05;;;6.10;99.90;;;;;;4958190;28;20452;-61
2022/11/12 05:17:44;;;;;;;19.13;9.40;;;6.00;99.90;;;;;;4953794;28;20032;-60
2022/11/12 05:20:11;;;;;;;20.75;9.80;;;6.10;99.90;;;;;;4958855;28;20039;-60
2022/11/12 05:22:37;;;;;;;20.98;10.00;;;6.10;99.90;;;;;;4950417;28;20054;-61
2022/11/12 05:25:03;;;;;;;17.90;9.85;;;6.10;99.90;;;;;;4961663;28;20051;-61
2022/11/12 05:27:28;;;;;;;19.02;9.35;;;6.10;99.90;;;;;;4952203;28;20023;-61
2022/11/12 05:29:54;;;;;;;19.55;8.40;;;6.10;99.90;;;;;;4951875;28;20030;-61
2022/11/12 05:32:20;;;;;;;23.70;9.88;;;6.00;99.90;;;;;;4955931;28;20622;-61
2022/11/12 05:34:45;;;;;;;21.00;9.38;;;6.00;99.90;;;;;;4959771;28;20474;-61
2022/11/12 05:37:14;;;;;;;22.52;9.45;;;5.90;99.90;;;;;;4949929;28;20039;-62
2022/11/12 05:39:40;;;;;;;15.30;8.57;;;5.90;99.90;;;;;;4959292;28;20446;-61
2022/11/12 05:42:06;;;;;;;15.57;8.70;;;5.90;99.90;;;;;;4958223;28;20046;-61
2022/11/12 05:44:32;;;;;;;22.73;9.93;;;5.90;99.90;;;;;;4962357;28;20389;-60
2022/11/12 05:46:57;;;;;;;16.08;8.27;;;5.90;99.90;;;;;;4950082;28;20065;-61
2022/11/12 05:49:23;;;;;;;19.60;9.02;;;5.90;99.90;;;;;;4961776;28;20061;-60
2022/11/12 05:51:48;;;;;;;19.55;9.57;;;5.80;99.90;;;;;;4951558;28;20059;-61
2022/11/12 05:54:14;;;;;;;17.90;9.32;;;5.80;99.90;;;;;;4960322;28;20057;-61
2022/11/12 05:56:40;;;;;;;20.70;9.20;;;5.80;99.90;;;;;;4951074;28;20454;-59
2022/11/12 05:59:08;;;;;;;16.33;8.63;;;5.80;99.90;;;;;;4957756;28;20035;-60
2022/11/12 06:01:37;;;;;;;18.58;8.63;;;5.70;99.90;;;;;;4947434;28;20082;-59
2022/11/12 06:04:03;;;;;;;17.83;9.88;;;5.80;99.90;;;;;;4959698;28;20031;-60
2022/11/12 06:06:28;;;;;;;19.17;9.43;;;5.80;99.90;;;;;;4952496;28;20054;-60
2022/11/12 06:08:54;;;;;;;19.00;9.25;;;5.70;99.90;;;;;;4955736;28;20031;-61
2022/11/12 06:11:19;;;;;;;17.92;8.80;;;5.80;99.90;;;;;;4951316;29;20098;-59
2022/11/12 06:13:45;;;;;;;18.23;8.98;;;5.70;99.90;;;;;;4952252;28;20062;-60
2022/11/12 06:16:10;;;;;;;18.60;8.60;;;5.70;99.90;;;;;;4958438;28;20050;-61
2022/11/12 06:18:36;;;;;;;18.20;9.60;;;5.70;99.90;;;;;;4953011;28;20042;-60
2022/11/12 06:21:20;;;;;;;24.05;8.95;;;5.70;99.90;;;;;;4958897;28;20067;-60
2022/11/12 06:23:47;;;;;;;18.75;10.68;;;5.70;99.90;;;;;;4955437;28;20039;-61
2022/11/12 06:26:12;;;;;;;16.08;8.57;;;5.70;99.90;;;;;;4951385;28;20382;-61
2022/11/12 06:28:38;;;;;;;23.20;9.90;;;5.70;99.90;;;;;;4950622;29;20134;-61
2022/11/12 06:31:04;;;;;;;19.55;10.32;;;5.70;99.90;;;;;;4957187;28;20032;-61
2022/11/12 06:33:30;;;;;;;19.63;9.55;;;5.70;99.90;;;;;;4957934;28;20038;-61
2022/11/12 06:36:01;;;;;;;21.23;10.20;;;5.70;99.90;;;;;;4957015;28;20034;-61
2022/11/12 06:38:31;;;;;;;15.88;8.43;;;5.70;99.90;;;;;;4951047;28;20035;-61
2022/11/12 06:40:57;;;;;;;17.40;8.70;;;5.80;99.90;;;;;;4960711;28;20393;-61
2022/11/12 06:43:23;;;;;;;19.35;10.57;;;5.80;99.90;;;;;;4955865;28;20038;-60
2022/11/12 06:45:49;;;;;;;18.23;9.50;;;5.80;99.90;;;;;;4958773;28;20095;-62
2022/11/12 06:48:14;;;;;;;15.73;8.55;;;5.80;99.90;;;;;;4956257;28;20071;-61
2022/11/12 06:50:40;;;;;;;21.10;8.50;;;5.70;99.90;;;;;;4959003;28;20039;-60
2022/11/12 06:53:05;;;;;;;17.70;8.38;;;5.60;99.90;;;;;;4956239;28;20035;-60
2022/11/12 06:55:31;;;;;;;20.02;9.98;;;5.60;99.90;;;;;;4959212;28;20023;-61
2022/11/12 06:57:56;;;;;;;22.17;9.88;;;5.70;99.90;;;;;;4953926;28;20028;-62
2022/11/12 07:00:23;;;;;;;19.33;9.98;;;5.70;99.90;;;;;;4965612;28;20366;-60
2022/11/12 07:02:48;;;;;;;19.90;9.30;;;5.70;99.90;;;;;;4955796;28;20035;-61
2022/11/12 07:05:14;;;;;;;19.45;9.95;;;5.70;99.90;;;;;;4962913;28;20031;-60
2022/11/12 07:07:40;;;;;;;27.73;10.90;;;5.70;99.90;;;;;;4951802;28;20054;-60
2022/11/12 07:10:06;;;;;;;19.92;9.68;;;5.60;99.90;;;;;;4954583;28;20035;-60
2022/11/12 07:12:31;;;;;;;20.50;9.68;;;5.70;99.90;;;;;;4950702;28;20392;-61
2022/11/12 07:14:57;;;;;;;24.25;8.98;;;5.70;99.90;;;;;;4954776;28;20110;-60
2022/11/12 07:17:22;;;;;;;19.88;9.77;;;5.60;99.90;;;;;;4952922;28;20035;-61
2022/11/12 07:19:48;;;;;;;19.02;9.35;;;5.60;99.90;;;;;;4961510;28;20098;-61
2022/11/12 07:22:13;;;;;;;23.83;9.73;;;5.60;99.90;;;;;;4954011;28;20043;-61
2022/11/12 07:24:39;;;;;;;20.27;10.48;;;5.60;99.90;;;;;;4958046;28;20027;-60
2022/11/12 07:27:04;;;;;;;20.23;9.55;;;5.60;99.90;;;;;;4957208;28;20441;-59
2022/11/12 07:29:30;;;;;;;17.30;8.90;;;5.70;99.90;;;;;;4957112;28;20459;-61
2022/11/12 07:31:55;;;;;;;19.75;9.38;;;5.70;99.90;;;;;;4954685;28;20122;-60
2022/11/12 07:34:21;;;;;;;14.32;7.93;;;5.70;99.90;;;;;;4962364;28;20031;-61
2022/11/12 07:36:50;;;;;;;18.58;8.75;;;5.80;99.90;;;;;;4957150;28;20073;-61
2022/11/12 07:39:15;;;;;;;19.63;9.30;;;5.80;99.90;;;;;;4958605;28;20077;-60
2022/11/12 07:41:41;;;;;;;14.30;7.97;;;5.80;99.90;;;;;;4958623;28;20034;-60
2022/11/12 07:44:06;;;;;;;14.80;8.20;;;5.90;99.90;;;;;;4957230;28;20032;-59
2022/11/12 07:46:32;;;;;;;16.75;7.93;;;5.90;99.90;;;;;;4959120;28;20042;-62
2022/11/12 07:48:57;;;;;;;16.13;8.23;;;5.90;99.90;;;;;;4958477;28;20046;-61
2022/11/12 07:51:25;;;;;;;17.27;7.82;;;5.90;99.90;;;;;;4955386;28;20031;-60
2022/11/12 07:53:53;;;;;;;15.52;7.97;;;6.00;99.90;;;;;;4952671;28;20023;-60
2022/11/12 07:56:21;;;;;;;18.45;8.38;;;6.00;99.90;;;;;;4964468;28;20069;-60
2022/11/12 07:58:49;;;;;;;16.05;7.78;;;6.00;99.90;;;;;;4956375;28;20023;-59
2022/11/12 08:01:17;;;;;;;16.40;7.80;;;6.10;99.90;;;;;;4954144;28;20029;-59
2022/11/12 08:03:43;;;;;;;15.65;7.85;;;6.20;99.90;;;;;;4956234;28;20071;-60
2022/11/12 08:06:08;;;;;;;13.50;7.72;;;6.20;99.90;;;;;;4954079;28;20142;-59
2022/11/12 08:08:34;;;;;;;15.85;6.72;;;6.30;99.90;;;;;;4957330;28;20581;-60
2022/11/12 08:10:59;;;;;;;14.15;7.20;;;6.30;99.90;;;;;;4960843;28;20055;-57
2022/11/12 08:13:25;;;;;;;12.32;7.30;;;6.40;99.90;;;;;;4952082;28;20034;-59
2022/11/12 08:15:51;;;;;;;12.98;7.43;;;6.40;99.90;;;;;;4955642;28;20094;-59
2022/11/12 08:18:17;;;;;;;11.95;7.35;;;6.50;99.90;;;;;;4950596;28;20039;-60
2022/11/12 08:20:43;;;;;;;15.75;7.38;;;6.60;99.90;;;;;;4975663;28;20039;-59
2022/11/12 08:23:08;;;;;;;14.98;6.82;;;6.70;99.90;;;;;;4958363;28;20066;-59
2022/11/12 08:25:35;;;;;;;13.60;6.68;;;6.70;99.90;;;;;;4964169;28;20029;-60
2022/11/12 08:28:01;;;;;;;11.38;6.93;;;6.80;99.90;;;;;;4957416;28;20077;-59
2022/11/12 08:30:28;;;;;;;16.25;7.25;;;6.90;99.90;;;;;;4953727;28;20035;-59
2022/11/12 08:33:00;;;;;;;12.52;6.78;;;6.90;99.90;;;;;;4953945;28;20031;-60
2022/11/12 08:35:26;;;;;;;15.38;6.97;;;6.90;99.90;;;;;;4955040;28;20023;-59
2022/11/12 08:38:05;;;;;;;9.35;5.57;;;7.00;99.90;;;;;;4956196;28;20027;-60
2022/11/12 08:40:31;;;;;;;10.13;6.35;;;7.10;99.90;;;;;;4950827;28;20094;-60
2022/11/12 08:43:05;;;;;;;14.35;7.03;;;7.10;99.90;;;;;;4960600;28;20134;-60
2022/11/12 08:45:32;;;;;;;13.82;6.88;;;7.20;99.90;;;;;;4962152;28;20075;-60
2022/11/12 08:47:59;;;;;;;11.95;6.88;;;7.20;99.90;;;;;;4958441;28;20027;-60
2022/11/12 08:50:26;;;;;;;15.70;6.72;;;7.30;99.90;;;;;;4962052;28;20053;-60
2022/11/12 08:52:51;;;;;;;14.27;6.75;;;7.30;99.90;;;;;;4958378;28;20042;-60
2022/11/12 08:55:17;;;;;;;10.70;6.30;;;7.40;99.90;;;;;;4953758;28;20039;-60
2022/11/12 08:57:43;;;;;;;11.07;6.55;;;7.50;99.90;;;;;;4949770;28;20042;-59
2022/11/12 09:00:11;;;;;;;12.45;6.35;;;7.50;99.90;;;;;;4958736;28;20025;-59
2022/11/12 09:02:37;;;;;;;15.50;7.45;;;7.70;99.90;;;;;;4955145;28;20035;-59
2022/11/12 09:05:04;;;;;;;12.63;6.68;;;7.70;99.90;;;;;;4957037;28;20031;-59
2022/11/12 09:07:29;;;;;;;11.95;6.53;;;7.80;99.90;;;;;;4950824;28;20078;-58
2022/11/12 09:09:55;;;;;;;12.57;7.80;;;7.90;99.90;;;;;;4954012;28;20031;-59
2022/11/12 09:12:21;;;;;;;14.70;7.00;;;8.00;99.90;;;;;;4949749;28;20041;-59
2022/11/12 09:14:46;;;;;;;12.98;6.15;;;8.00;99.90;;;;;;4956041;28;20023;-60
2022/11/12 09:17:13;;;;;;;10.80;6.47;;;8.10;99.90;;;;;;4949053;28;20022;-61
2022/11/12 09:19:38;;;;;;;11.45;7.55;;;8.20;99.90;;;;;;4947581;28;20090;-61
2022/11/12 09:22:04;;;;;;;10.65;7.35;;;8.30;99.90;;;;;;4956382;28;20031;-60
2022/11/12 09:24:29;;;;;;;10.40;5.75;;;8.30;99.90;;;;;;4956417;28;20223;-61
2022/11/12 09:26:55;;;;;;;15.48;7.05;;;8.40;99.90;;;;;;4949136;28;20035;-61
2022/11/12 09:29:21;;;;;;;14.75;6.68;;;8.50;99.90;;;;;;4953710;28;20039;-60
2022/11/12 09:31:46;;;;;;;10.88;6.47;;;8.60;99.90;;;;;;4955907;28;20458;-61
2022/11/12 09:34:12;;;;;;;13.23;6.85;;;8.70;99.90;;;;;;4952153;28;20486;-60
2022/11/12 09:36:38;;;;;;;16.20;6.47;;;8.80;99.90;;;;;;4956290;28;20090;-60
2022/11/12 09:39:04;;;;;;;8.90;5.60;;;8.80;99.90;;;;;;4949831;28;20028;-59
2022/11/12 09:41:41;;;;;;;13.15;6.05;;;8.90;99.90;;;;;;4955454;28;20026;-59
2022/11/12 09:44:19;;;;;;;13.10;5.88;;;9.00;99.90;;;;;;4952541;28;20038;-57
2022/11/12 09:47:03;;;;;;;9.63;5.35;;;9.10;99.90;;;;;;4953286;28;20102;-60
2022/11/12 09:49:39;;;;;;;14.35;5.80;;;9.20;99.90;;;;;;4957892;28;20074;-60
2022/11/12 09:52:15;;;;;;;8.82;5.32;;;9.30;99.90;;;;;;4950904;28;20506;-60
2022/11/12 09:54:41;;;;;;;11.90;5.60;;;9.40;99.90;;;;;;4955934;28;20081;-58
2022/11/12 09:57:13;;;;;;;9.57;5.15;;;9.50;99.90;;;;;;4949454;28;20023;-59
2022/11/12 09:59:41;;;;;;;13.25;5.13;;;9.60;99.90;;;;;;4960927;28;20058;-57
2022/11/12 10:02:40;;;;;;;8.02;5.35;;;9.70;99.90;;;;;;4949488;28;20544;-59
2022/11/12 10:05:08;;;;;;;9.20;4.68;;;9.80;99.90;;;;;;4954527;28;20042;-58
2022/11/12 10:08:18;;;;;;;13.05;5.50;;;9.90;99.90;;;;;;4949637;28;20481;-60
2022/11/12 10:11:07;;;;;;;14.98;5.10;;;10.00;99.90;;;;;;4941889;28;20054;-60
2022/11/12 10:14:05;;;;;;;10.50;5.38;;;10.10;99.90;;;;;;4944977;28;20127;-59
2022/11/12 10:16:58;;;;;;;8.13;5.20;;;10.20;99.90;;;;;;4931439;28;20098;-61
2022/11/12 10:19:47;;;;;;;15.90;5.68;;;10.30;99.90;;;;;;4956369;28;20102;-59
2022/11/12 10:22:39;;;;;;;10.20;5.57;;;10.40;99.90;;;;;;4933626;29;20114;-60
2022/11/12 10:25:12;;;;;;;9.38;5.22;;;10.40;99.90;;;;;;4947984;29;20023;-60
2022/11/12 10:27:40;;;;;;;12.45;6.38;;;10.50;99.90;;;;;;4947450;29;20521;-59
2022/11/12 10:30:17;;;;;;;12.63;5.38;;;10.50;99.90;;;;;;4952838;28;20031;-60
2022/11/12 10:32:45;;;;;;;10.35;5.28;;;10.60;99.90;;;;;;4948503;28;20438;-59
2022/11/12 10:35:14;;;;;;;13.23;5.68;;;10.70;99.90;;;;;;4950688;28;20035;-61
2022/11/12 10:37:45;;;;;;;9.43;5.47;;;10.70;99.90;;;;;;4948548;28;20094;-60
2022/11/12 10:40:19;;;;;;;8.25;4.93;;;10.80;99.90;;;;;;4950834;28;20039;-60
2022/11/12 10:43:01;;;;;;;;;;;10.80;99.90;;;;;;4954488;28;20401;-60
2022/11/12 10:45:27;;;;;;;11.48;5.13;;;10.90;99.90;;;;;;4948863;28;19906;-61
2022/11/12 10:47:53;;;;;;;8.27;4.72;;;11.00;99.90;;;;;;4947592;28;20520;-60
2022/11/12 10:53:06;;;;;;;11.15;5.28;;;11.10;99.90;;;;;;5007397;23;20502;-57
2022/11/12 10:55:35;;;;;;;11.50;5.20;;;11.10;99.90;;;;;;4981931;28;20081;-59
2022/11/12 10:58:19;;;;;;;8.15;5.25;;;11.20;99.90;;;;;;4985139;28;20022;-59
2022/11/12 11:00:55;;;;;;;6.90;4.50;;;11.20;99.90;;;;;;4989079;28;20025;-58
2022/11/12 11:03:45;;;;;;;9.80;4.88;;;11.30;99.90;;;;;;4982876;28;20328;-58
2022/11/12 11:06:14;;;;;;;8.48;4.88;;;11.40;99.90;;;;;;4992244;28;20488;-59
2022/11/12 11:08:48;;;;;;;8.00;4.68;;;11.60;99.90;;;;;;4986020;28;20555;-58
2022/11/12 11:11:29;;;;;;;10.55;5.82;;;11.80;99.90;;;;;;4985770;28;20044;-57
2022/11/12 11:14:07;;;;;;;7.85;4.63;;;11.90;99.90;;;;;;4984547;28;20046;-57
2022/11/12 11:16:48;;;;;;;10.60;6.00;;;12.00;99.90;;;;;;4983615;28;20238;-58
2022/11/12 11:19:14;;;;;;;8.98;5.45;;;12.00;99.90;;;;;;4988867;28;20030;-57
2022/11/12 11:21:58;;;;;;;14.63;6.15;;;11.90;99.90;;;;;;4988665;28;20825;-58
2022/11/12 11:25:02;;;;;;;9.40;5.35;;;12.00;99.90;;;;;;4986589;28;20145;-58
2022/11/12 11:27:49;;;;;;;11.57;5.35;;;12.10;99.90;;;;;;4986505;28;20026;-59
2022/11/12 11:30:19;;;;;;;8.65;5.25;;;12.20;99.90;;;;;;4987526;28;20495;-58
2022/11/12 11:33:05;;;;;;;8.98;5.38;;;12.30;99.90;;;;;;4988354;28;20353;-58
2022/11/12 11:35:36;;;;;;;8.10;5.20;;;12.20;99.90;;;;;;4985072;28;20034;-57
2022/11/12 11:38:15;;;;;;;13.80;5.72;;;12.10;99.90;;;;;;4986070;28;20066;-59
2022/11/12 11:41:04;;;;;;;10.25;6.18;;;12.20;99.90;;;;;;4973204;28;20026;-57
2022/11/12 11:43:38;;;;;;;9.75;5.65;;;12.30;99.90;;;;;;4980282;28;20031;-59
2022/11/12 11:46:06;;;;;;;10.27;5.93;;;12.50;99.90;;;;;;4987903;28;20041;-55
2022/11/12 11:48:56;;;;;;;14.10;6.13;;;12.70;99.90;;;;;;4989546;28;20823;-59
2022/11/12 11:51:44;;;;;;;11.88;5.38;;;12.80;99.90;;;;;;4988811;28;20512;-56
2022/11/12 11:54:24;;;;;;;8.82;5.35;;;13.00;99.90;;;;;;4988566;28;20034;-58
2022/11/12 11:56:54;;;;;;;12.43;5.72;;;13.00;99.90;;;;;;4985931;28;20407;-59
2022/11/12 11:59:29;;;;;;;11.13;5.63;;;12.90;99.90;;;;;;4982153;28;20034;-56
2022/11/12 12:02:26;;;;;;;11.88;5.57;;;13.10;99.90;;;;;;4991990;28;20036;-59
2022/11/12 12:05:17;;;;;;;13.80;6.00;;;13.10;99.90;;;;;;4982962;28;20033;-58
2022/11/12 12:08:04;;;;;;;6.97;4.35;;;13.30;99.90;;;;;;4992210;28;20037;-57
2022/11/12 12:10:47;;;;;;;6.70;4.75;;;13.40;99.90;;;;;;4992083;28;20080;-59
2022/11/12 12:13:41;;;;;;;11.40;5.43;;;13.60;99.90;;;;;;4991425;28;20622;-54
2022/11/12 12:16:16;;;;;;;9.20;5.82;;;13.70;99.90;;;;;;4994636;28;20365;-57
2022/11/12 12:18:54;;;;;;;11.57;5.55;;;13.70;99.90;;;;;;4990979;28;20504;-58
2022/11/12 12:21:22;;;;;;;14.63;6.38;;;13.70;99.90;;;;;;4988113;28;20042;-59
2022/11/12 12:23:59;;;;;;;11.50;5.53;;;13.70;99.90;;;;;;4998307;28;20110;-59
2022/11/12 12:26:35;;;;;;;8.52;5.43;;;13.70;99.90;;;;;;4987214;28;20026;-58
2022/11/12 12:29:11;;;;;;;11.73;5.90;;;13.80;99.90;;;;;;4988406;28;20115;-57
2022/11/12 12:31:43;;;;;;;12.35;6.32;;;13.80;99.90;;;;;;4993195;28;20042;-59
2022/11/12 12:34:27;;;;;;;8.68;5.68;;;13.90;99.90;;;;;;4993830;28;20097;-59
2022/11/12 12:37:03;;;;;;;13.13;6.18;;;13.90;99.90;;;;;;4994102;28;20022;-56
2022/11/12 12:39:45;;;;;;;11.32;5.55;;;13.90;99.90;;;;;;4992807;28;20030;-57
2022/11/12 12:42:41;;;;;;;10.48;5.07;;;13.90;99.90;;;;;;4986915;28;20038;-56
2022/11/12 12:45:31;;;;;;;11.27;5.45;;;14.00;99.90;;;;;;4994859;28;20042;-59
2022/11/12 12:47:58;;;;;;;9.60;4.80;;;14.00;99.90;;;;;;4987342;28;20042;-58
2022/11/12 12:50:25;;;;;;;9.10;5.05;;;14.00;99.90;;;;;;4991769;28;20492;-59
2022/11/12 12:53:11;;;;;;;10.65;5.85;;;14.00;99.90;;;;;;4990346;28;20037;-59
2022/11/12 12:55:36;;;;;;;9.10;5.22;;;14.10;99.90;;;;;;4988400;28;20030;-59
2022/11/12 12:58:02;;;;;;;12.93;6.10;;;14.10;99.90;;;;;;4992515;28;20502;-57
2022/11/12 13:00:39;;;;;;;17.65;6.07;;;14.10;99.90;;;;;;4990906;28;20022;-59
2022/11/12 13:03:05;;;;;;;11.20;4.93;;;14.10;99.90;;;;;;4990730;28;20057;-59
2022/11/12 13:05:36;;;;;;;11.23;5.43;;;14.00;99.90;;;;;;4994556;28;20100;-56
2022/11/12 13:08:18;;;;;;;11.18;5.68;;;14.10;99.90;;;;;;4991971;28;20682;-55
2022/11/12 13:10:47;;;;;;;11.23;5.35;;;14.10;99.90;;;;;;5001184;28;20032;-59
2022/11/12 13:13:18;;;;;;;9.20;5.25;;;14.10;99.90;;;;;;4974679;28;20030;-56
2022/11/12 13:15:52;;;;;;;7.68;4.70;;;14.10;99.90;;;;;;4990256;28;20018;-59
2022/11/12 13:18:39;;;;;;;14.27;5.30;;;14.10;99.90;;;;;;4990830;28;20099;-59
2022/11/12 13:21:19;;;;;;;8.70;5.82;;;14.00;99.90;;;;;;4992855;28;20169;-59
2022/11/12 13:24:09;;;;;;;9.43;5.32;;;14.20;99.90;;;;;;4997110;28;20033;-58
2022/11/12 13:26:38;;;;;;;10.93;4.32;;;14.30;99.90;;;;;;4994031;28;20448;-58